createdAt,value
2023-01-11T00:00:12.559Z,1.80
2023-01-11T00:05:16.211Z,2.80
2023-01-11T00:10:19.484Z,2.57
2023-01-11T00:15:21.790Z,5.27
2023-01-11T00:20:24.942Z,2.73
2023-01-11T00:25:27.579Z,5.63
2023-01-11T00:30:30.010Z,3.43
2023-01-11T00:35:32.820Z,3.40
2023-01-11T00:40:35.238Z,4.67
2023-01-11T00:45:56.353Z,3.97
2023-01-11T00:50:59.458Z,3.90
2023-01-11T00:56:01.724Z,4.67
2023-01-11T01:01:08.844Z,3.60
2023-01-11T01:06:11.125Z,5.30
2023-01-11T01:11:13.688Z,3.37
2023-01-11T01:16:15.988Z,3.30
2023-01-11T01:21:18.285Z,2.10
2023-01-11T01:26:21.055Z,1.60
2023-01-11T01:31:23.444Z,1.30
2023-01-11T01:36:26.305Z,1.20
2023-01-11T01:41:29.257Z,1.00
2023-01-11T01:46:35.794Z,2.40
2023-01-11T01:51:52.787Z,0.97
2023-01-11T01:57:05.635Z,0.90
2023-01-11T02:02:08.187Z,0.97
2023-01-11T02:07:40.917Z,1.10
2023-01-11T02:12:57.431Z,0.97
2023-01-11T02:17:59.811Z,1.10
2023-01-11T02:23:48.482Z,1.50
2023-01-11T02:28:53.435Z,1.20
2023-01-11T02:34:20.695Z,1.00
2023-01-11T02:39:56.815Z,1.10
2023-01-11T02:45:20.465Z,0.90
2023-01-11T02:50:43.861Z,0.90
2023-01-11T02:55:52.010Z,1.63
2023-01-11T03:00:58.752Z,1.00
2023-01-11T03:06:16.106Z,1.27
2023-01-11T03:12:06.569Z,0.87
2023-01-11T03:17:36.253Z,1.33
2023-01-11T03:22:59.690Z,1.10
2023-01-11T03:28:42.642Z,1.10
2023-01-11T03:33:54.816Z,1.30
2023-01-11T03:39:27.362Z,1.47
2023-01-11T03:44:36.109Z,0.90
2023-01-11T03:49:51.840Z,1.47
2023-01-11T03:54:57.293Z,1.00
2023-01-11T04:00:00.487Z,1.53
2023-01-11T04:05:03.865Z,1.53
2023-01-11T04:10:07.599Z,1.00
2023-01-11T04:15:11.028Z,1.70
2023-01-11T04:20:13.780Z,0.90
2023-01-11T04:25:16.296Z,2.27
2023-01-11T04:30:18.857Z,1.10
2023-01-11T04:35:21.356Z,1.47
2023-01-11T04:40:25.789Z,2.27
2023-01-11T04:45:29.088Z,4.20
2023-01-11T04:50:31.536Z,1.60
2023-01-11T04:55:33.857Z,2.87
2023-01-11T05:00:36.404Z,1.93
2023-01-11T05:05:38.837Z,3.20
2023-01-11T05:10:41.122Z,5.40
2023-01-11T05:15:43.430Z,3.00
2023-01-11T05:20:49.640Z,2.63
2023-01-11T05:25:51.904Z,2.03
2023-01-11T05:30:54.338Z,2.10
2023-01-11T05:36:18.555Z,3.30
2023-01-11T05:41:23.941Z,3.90
2023-01-11T05:46:27.776Z,3.23
2023-01-11T05:51:31.488Z,1.53
2023-01-11T05:56:34.519Z,2.63
2023-01-11T06:01:37.454Z,1.80
2023-01-11T06:06:39.827Z,1.93
2023-01-11T06:11:42.340Z,3.83
2023-01-11T06:16:44.777Z,1.47
2023-01-11T06:21:47.272Z,1.20
2023-01-11T06:26:52.236Z,1.23
2023-01-11T06:31:54.588Z,1.00
2023-01-11T06:36:56.961Z,1.83
2023-01-11T06:41:59.427Z,0.90
2023-01-11T06:47:01.723Z,2.50
2023-01-11T06:52:04.121Z,1.67
2023-01-11T06:57:06.321Z,1.00
2023-01-11T07:02:10.920Z,1.10
2023-01-11T07:07:13.376Z,0.97
2023-01-11T07:12:15.757Z,1.10
2023-01-11T07:17:18.131Z,1.20
2023-01-11T07:22:22.718Z,2.10
2023-01-11T07:27:25.206Z,1.00
2023-01-11T07:32:29.975Z,1.40
2023-01-11T07:37:32.974Z,1.40
2023-01-11T07:42:54.108Z,3.70
2023-01-11T07:47:56.506Z,1.67
2023-01-11T07:52:59.127Z,1.10
2023-01-11T07:58:01.685Z,0.97
2023-01-11T08:03:04.438Z,3.80
2023-01-11T08:08:07.599Z,0.80
2023-01-11T08:13:33.233Z,0.87
2023-01-11T08:18:35.588Z,2.90
2023-01-11T08:23:37.881Z,1.17
2023-01-11T08:28:40.775Z,1.37
2023-01-11T08:33:43.325Z,1.23
2023-01-11T08:38:45.748Z,0.90
2023-01-11T08:43:49.916Z,1.20
2023-01-11T08:48:53.932Z,1.33
2023-01-11T08:53:56.311Z,0.97
2023-01-11T08:58:58.879Z,1.00
2023-01-11T09:04:02.439Z,1.07
2023-01-11T09:09:07.644Z,1.07
2023-01-11T09:14:09.837Z,1.20
2023-01-11T09:19:12.096Z,1.20
2023-01-11T09:24:14.954Z,1.20
2023-01-11T09:29:17.422Z,1.67
2023-01-11T09:34:21.217Z,0.93
2023-01-11T09:39:26.512Z,1.00
2023-01-11T09:44:31.049Z,1.10
2023-01-11T09:49:40.856Z,1.00
2023-01-11T09:54:44.536Z,1.23
2023-01-11T10:00:09.983Z,1.23
2023-01-11T10:05:51.650Z,1.00
2023-01-11T10:18:39.409Z,1.10
2023-01-11T10:23:15.102Z,1.20
2023-01-11T10:28:35.576Z,1.10
2023-01-11T10:34:25.030Z,1.07
2023-01-11T10:40:33.378Z,0.90
2023-01-11T10:45:39.663Z,1.70
2023-01-11T10:51:27.505Z,1.10
2023-01-11T10:57:01.715Z,1.23
2023-01-11T11:02:17.176Z,2.83
2023-01-11T11:07:40.563Z,0.90
2023-01-11T11:13:22.599Z,1.20
2023-01-11T11:18:25.066Z,2.50
2023-01-11T11:23:28.860Z,1.10
2023-01-11T11:28:33.976Z,1.00
2023-01-11T11:33:39.568Z,3.37
2023-01-11T11:39:09.932Z,1.20
2023-01-11T11:44:38.571Z,3.00
2023-01-11T11:49:42.206Z,1.00
2023-01-11T11:54:57.206Z,1.03
2023-01-11T12:00:22.936Z,0.90
2023-01-11T12:05:25.267Z,1.00
2023-01-11T12:10:29.727Z,1.20
2023-01-11T12:15:34.379Z,1.00
2023-01-11T12:20:41.449Z,0.90
2023-01-11T12:26:01.497Z,0.80
2023-01-11T12:31:23.968Z,1.80
2023-01-11T12:36:41.460Z,0.90
2023-01-11T12:42:20.902Z,2.33
2023-01-11T12:47:41.200Z,1.20
2023-01-11T12:53:01.872Z,1.37
2023-01-11T12:58:56.804Z,1.00
2023-01-11T13:04:29.921Z,1.10
2023-01-11T13:10:05.684Z,1.20
2023-01-11T13:15:43.470Z,1.40
2023-01-11T13:21:06.909Z,1.60
2023-01-11T13:26:33.772Z,1.83
2023-01-11T13:31:36.991Z,2.17
2023-01-11T13:36:53.030Z,1.67
2023-01-11T13:42:00.589Z,1.30
2023-01-11T13:47:19.753Z,1.57
2023-01-11T13:53:10.091Z,1.30
2023-01-11T13:58:29.244Z,1.40
2023-01-11T14:03:49.792Z,1.90
2023-01-11T14:09:24.489Z,1.27
2023-01-11T14:15:01.738Z,1.60
2023-01-11T14:20:35.218Z,1.63
2023-01-11T14:26:01.211Z,2.33
2023-01-11T14:31:25.095Z,2.67
2023-01-11T14:36:49.730Z,1.57
2023-01-11T14:42:35.666Z,2.00
2023-01-11T14:48:04.276Z,2.90
2023-01-11T14:53:10.409Z,1.67
2023-01-11T14:58:29.213Z,3.00
2023-01-11T15:03:46.492Z,3.63
2023-01-11T15:08:55.463Z,1.80
2023-01-11T15:14:05.082Z,1.10
2023-01-11T15:19:36.074Z,3.00
2023-01-11T15:24:44.813Z,2.60
2023-01-11T15:29:55.666Z,2.07
2023-01-11T15:35:26.597Z,1.77
2023-01-11T15:40:39.220Z,1.33
2023-01-11T15:46:22.158Z,2.03
2023-01-11T15:52:01.859Z,2.17
2023-01-11T15:57:35.867Z,2.80
2023-01-11T16:03:06.239Z,2.73
2023-01-11T16:08:26.801Z,3.20
2023-01-11T16:13:47.727Z,3.17
2023-01-11T16:18:57.987Z,1.63
2023-01-11T16:24:09.532Z,3.00
2023-01-11T16:29:25.040Z,2.60
2023-01-11T16:34:29.907Z,4.50
2023-01-11T16:39:34.380Z,2.87
2023-01-11T16:45:19.049Z,2.07
2023-01-11T16:50:25.884Z,1.30
2023-01-11T16:55:41.396Z,4.83
2023-01-11T17:00:43.748Z,2.27
2023-01-11T17:05:56.166Z,2.10
2023-01-11T17:11:22.632Z,3.60
2023-01-11T17:16:54.611Z,1.70
2023-01-11T17:22:27.701Z,1.97
2023-01-11T17:27:45.486Z,2.03
2023-01-11T17:32:59.178Z,4.40
2023-01-11T17:38:06.158Z,1.47
2023-01-11T17:43:43.353Z,2.00
2023-01-11T17:48:58.559Z,5.20
2023-01-11T17:54:00.891Z,4.10
2023-01-11T17:59:24.406Z,3.30
2023-01-11T18:04:29.036Z,2.93
2023-01-11T18:09:36.687Z,3.63
2023-01-11T18:14:55.166Z,3.67
2023-01-11T18:19:58.196Z,3.60
2023-01-11T18:25:04.656Z,2.80
2023-01-11T18:30:11.364Z,4.43
2023-01-11T18:35:19.177Z,3.30
2023-01-11T18:45:58.806Z,2.47
2023-01-11T18:51:01.144Z,3.77
2023-01-11T18:56:03.564Z,4.43
2023-01-11T19:01:08.393Z,3.10
2023-01-11T19:06:13.238Z,7.13
2023-01-11T19:11:16.856Z,7.60
2023-01-11T19:16:19.002Z,3.77
2023-01-11T19:21:21.360Z,4.33
2023-01-11T19:26:23.629Z,3.47
2023-01-11T19:31:25.921Z,2.90
2023-01-11T19:36:32.125Z,2.70
2023-01-11T19:41:53.731Z,3.87
2023-01-11T19:47:10.399Z,6.10
2023-01-11T19:52:19.116Z,3.00
2023-01-11T19:57:22.922Z,5.77
2023-01-11T20:02:26.403Z,7.63
2023-01-11T20:07:28.719Z,3.57
2023-01-11T20:12:30.876Z,6.30
2023-01-11T20:17:33.697Z,2.83
2023-01-11T20:22:35.977Z,5.10
2023-01-11T20:27:38.827Z,5.03
2023-01-11T20:32:42.464Z,5.73
2023-01-11T20:37:45.037Z,3.50
2023-01-11T20:42:47.223Z,3.70
2023-01-11T20:47:49.557Z,7.57
2023-01-11T20:52:52.389Z,6.27
2023-01-11T20:57:54.963Z,7.53
2023-01-11T21:02:57.324Z,5.47
2023-01-11T21:07:59.494Z,10.23
2023-01-11T21:13:03.205Z,11.80
2023-01-11T21:18:07.098Z,5.27
2023-01-11T21:23:09.416Z,6.10
2023-01-11T21:28:12.335Z,5.87
2023-01-11T21:33:15.947Z,5.20
2023-01-11T21:38:18.083Z,10.07
2023-01-11T21:43:20.229Z,3.60
2023-01-11T21:48:22.916Z,4.60
2023-01-11T21:53:29.132Z,8.70
2023-01-11T21:58:31.633Z,8.27
2023-01-11T22:03:33.919Z,5.67
2023-01-11T22:08:38.191Z,10.60
2023-01-11T22:13:40.584Z,7.03
2023-01-11T22:18:44.114Z,7.13
2023-01-11T22:23:48.596Z,5.30
2023-01-11T22:29:14.755Z,7.53
2023-01-11T22:34:18.569Z,7.87
2023-01-11T22:39:21.292Z,4.30
2023-01-11T22:44:23.925Z,5.77
2023-01-11T22:49:26.784Z,5.40
2023-01-11T22:54:29.126Z,8.10
2023-01-11T22:59:32.526Z,8.13
2023-01-11T23:04:34.697Z,7.23
2023-01-11T23:09:37.084Z,4.60
2023-01-11T23:14:39.364Z,7.80
2023-01-11T23:19:42.338Z,10.60
2023-01-11T23:24:44.666Z,3.73
2023-01-11T23:29:47.029Z,8.87
2023-01-11T23:34:49.380Z,8.90
2023-01-11T23:39:51.526Z,9.70
2023-01-11T23:44:57.987Z,10.77
2023-01-11T23:50:01.519Z,9.60
2023-01-11T23:55:04.094Z,8.03
